< < Back
Terminal Aerodrome Forecast


Current Version              Previous Versions:   1  2  3  4  5  6  7  8  9  

Terminal Aerodrome Forecast

244
FTUS42 KGSP 240544 RRA
TAFGSP
TAF
KGSP 240544Z 2406/2506 02003KT P6SM SCT180 BKN250
     FM241600 22004KT P6SM SCT160=



Latest METAR

434
SAUS70 KWBC 250900 RRK
MTRGSP
METAR KGSP 250853Z AUTO 32003KT 10SM CLR 09/04 A2999 RMK AO2 SLP151
T00940044 58004


USA.gov is the U.S. government's official web portal to all federal, state and local government web resources and services.